Terminal Aerodrome Forecast
Issued by NWS Medford, OR

Home | Current Version | Previous Version | Text Only | Print | Product List | Glossary On
Versions: 1 2 3 4 5 6 7 8 9 10 11 12 13 14
000
FTUS46 KMFR 061928 AAB
TAFMFR
TAF AMD
KMFR 061928Z 0619/0718 VRB05KT P6SM SCT030 BKN040
     FM062100 33007G13KT P6SM SCT050
     FM062300 34015G25KT P6SM VCSH BKN050
     FM070300 34006KT P6SM BKN040=

USA.gov is the U.S. government's official web portal to all federal, state and local government web resources and services.